createdAt,value
2023-05-14T00:01:08.241Z,8.45
2023-05-14T00:05:19.820Z,6.00
2023-05-14T00:09:32.705Z,7.40
2023-05-14T00:13:44.464Z,7.00
2023-05-14T00:17:56.157Z,9.02
2023-05-14T00:22:08.970Z,6.85
2023-05-14T00:26:21.538Z,5.97
2023-05-14T00:30:33.437Z,10.55
2023-05-14T00:34:45.084Z,9.73
2023-05-14T00:38:56.792Z,11.68
2023-05-14T00:43:08.399Z,9.95
2023-05-14T00:47:20.142Z,8.10
2023-05-14T00:51:31.807Z,7.78
2023-05-14T00:55:43.516Z,7.82
2023-05-14T00:59:55.643Z,7.65
2023-05-14T01:04:08.196Z,9.27
2023-05-14T01:08:41.854Z,8.68
2023-05-14T01:13:07.805Z,6.45
2023-05-14T01:17:22.975Z,8.40
2023-05-14T01:21:38.630Z,7.03
2023-05-14T01:25:50.363Z,9.38
2023-05-14T01:30:57.190Z,8.15
2023-05-14T01:35:10.375Z,8.00
2023-05-14T01:39:23.716Z,8.02
2023-05-14T01:43:36.103Z,9.00
2023-05-14T01:47:48.074Z,7.43
2023-05-14T01:51:59.775Z,7.00
2023-05-14T01:56:11.447Z,9.43
2023-05-14T02:00:27.536Z,15.43
2023-05-14T02:04:39.199Z,8.50
2023-05-14T02:08:50.950Z,8.65
2023-05-14T02:13:03.953Z,8.75
2023-05-14T02:17:17.711Z,7.40
2023-05-14T02:21:29.336Z,8.05
2023-05-14T02:25:41.000Z,9.88
2023-05-14T02:29:52.901Z,11.18
2023-05-14T02:34:06.677Z,13.35
2023-05-14T02:38:18.759Z,9.95
2023-05-14T02:42:30.463Z,9.13
2023-05-14T02:46:42.913Z,9.77
2023-05-14T02:50:54.619Z,11.00
2023-05-14T02:55:06.713Z,9.43
2023-05-14T02:59:18.444Z,9.70
2023-05-14T03:03:31.011Z,13.23
2023-05-14T03:07:43.201Z,9.95
2023-05-14T03:11:55.036Z,14.68
2023-05-14T03:16:06.826Z,9.30
2023-05-14T03:20:18.572Z,11.70
2023-05-14T03:24:31.552Z,13.05
2023-05-14T03:28:44.161Z,12.73
2023-05-14T03:32:55.915Z,11.32
2023-05-14T03:37:07.613Z,11.73
2023-05-14T03:41:20.069Z,12.07
2023-05-14T03:45:32.378Z,11.70
2023-05-14T03:49:44.127Z,9.70
2023-05-14T03:54:01.280Z,11.57
2023-05-14T03:58:14.048Z,14.30
2023-05-14T04:02:25.924Z,10.82
2023-05-14T04:06:37.657Z,20.38
2023-05-14T04:10:49.997Z,12.57
2023-05-14T04:15:01.850Z,13.18
2023-05-14T04:19:14.020Z,10.68
2023-05-14T04:23:26.875Z,10.45
2023-05-14T04:27:38.489Z,12.20
2023-05-14T04:31:50.119Z,9.57
2023-05-14T04:36:02.016Z,10.77
2023-05-14T04:40:13.708Z,11.27
2023-05-14T04:44:26.249Z,16.02
2023-05-14T04:48:37.824Z,9.80
2023-05-14T04:52:49.412Z,9.75
2023-05-14T04:57:03.983Z,11.82
2023-05-14T05:01:15.885Z,9.52
2023-05-14T05:05:27.505Z,14.75
2023-05-14T05:09:39.172Z,11.18
2023-05-14T05:13:50.708Z,10.07
2023-05-14T05:18:02.385Z,7.35
2023-05-14T05:22:14.023Z,10.70
2023-05-14T05:26:27.052Z,11.68
2023-05-14T05:30:38.802Z,10.25
2023-05-14T05:34:51.961Z,8.57
2023-05-14T05:39:03.739Z,11.73
2023-05-14T05:43:15.637Z,7.80
2023-05-14T05:47:27.414Z,7.75
2023-05-14T05:51:39.118Z,7.90
2023-05-14T05:55:53.648Z,7.43
2023-05-14T06:00:15.326Z,8.10
2023-05-14T06:04:26.904Z,6.97
2023-05-14T06:08:38.495Z,7.57
2023-05-14T06:12:50.395Z,8.73
2023-05-14T06:17:02.261Z,9.27
2023-05-14T06:21:14.048Z,5.85
2023-05-14T06:25:25.754Z,5.70
2023-05-14T06:29:38.065Z,11.43
2023-05-14T06:33:49.848Z,6.13
2023-05-14T06:38:01.537Z,8.05
2023-05-14T06:42:13.141Z,10.60
2023-05-14T06:46:24.761Z,6.28
2023-05-14T06:50:36.394Z,6.60
2023-05-14T06:54:48.043Z,8.85
2023-05-14T06:58:59.715Z,5.18
2023-05-14T07:03:11.471Z,5.63
2023-05-14T07:07:23.273Z,5.13
2023-05-14T07:11:34.981Z,8.98
2023-05-14T07:15:46.655Z,9.18
2023-05-14T07:19:58.346Z,6.82
2023-05-14T07:24:10.034Z,7.03
2023-05-14T07:28:21.636Z,6.22
2023-05-14T07:32:33.364Z,5.07
2023-05-14T07:36:45.411Z,4.70
2023-05-14T07:40:57.123Z,4.78
2023-05-14T07:45:09.888Z,8.95
2023-05-14T07:49:21.526Z,5.13
2023-05-14T07:53:33.188Z,9.45
2023-05-14T07:57:45.670Z,4.68
2023-05-14T08:01:57.531Z,4.10
2023-05-14T08:06:09.378Z,5.53
2023-05-14T08:10:21.264Z,3.75
2023-05-14T08:14:33.245Z,3.65
2023-05-14T08:18:44.944Z,3.90
2023-05-14T08:22:58.072Z,3.42
2023-05-14T08:27:09.924Z,4.15
2023-05-14T08:31:21.595Z,4.60
2023-05-14T08:35:33.308Z,3.58
2023-05-14T08:39:45.050Z,6.97
2023-05-14T08:44:12.976Z,4.00
2023-05-14T08:48:29.090Z,4.40
2023-05-14T08:52:41.006Z,2.80
2023-05-14T08:56:53.231Z,5.03
2023-05-14T09:01:04.974Z,2.85
2023-05-14T09:05:17.777Z,4.75
2023-05-14T09:09:30.000Z,5.70
2023-05-14T09:13:41.692Z,6.80
2023-05-14T09:17:53.587Z,3.22
2023-05-14T09:22:09.403Z,2.78
2023-05-14T09:26:24.103Z,3.67
2023-05-14T09:30:37.072Z,3.35
2023-05-14T09:34:48.735Z,2.85
2023-05-14T09:39:00.849Z,2.65
2023-05-14T09:43:13.031Z,2.50
2023-05-14T09:47:24.885Z,3.28
2023-05-14T09:51:38.483Z,3.00
2023-05-14T09:55:50.171Z,7.90
2023-05-14T10:00:01.911Z,3.17
2023-05-14T10:04:16.442Z,3.83
2023-05-14T10:08:33.599Z,3.17
2023-05-14T10:12:57.109Z,3.75
2023-05-14T10:17:18.114Z,2.78
2023-05-14T10:21:32.117Z,3.67
2023-05-14T10:25:43.968Z,2.95
2023-05-14T10:29:56.157Z,2.80
2023-05-14T10:34:37.990Z,7.47
2023-05-14T10:38:57.244Z,3.33
2023-05-14T10:43:11.326Z,3.10
2023-05-14T10:47:23.059Z,3.60
2023-05-14T10:51:36.412Z,2.40
2023-05-14T10:55:48.202Z,2.92
2023-05-14T11:00:01.314Z,2.20
2023-05-14T11:04:19.338Z,3.75
2023-05-14T11:08:32.572Z,3.22
2023-05-14T11:12:47.664Z,2.88
2023-05-14T11:16:59.365Z,3.67
2023-05-14T11:21:11.101Z,2.30
2023-05-14T11:25:25.735Z,2.10
2023-05-14T11:29:38.119Z,2.47
2023-05-14T11:33:49.687Z,5.28
2023-05-14T11:38:01.301Z,2.67
2023-05-14T11:42:14.732Z,3.60
2023-05-14T11:46:26.475Z,2.38
2023-05-14T11:50:38.161Z,6.13
2023-05-14T11:54:50.926Z,2.55
2023-05-14T11:59:02.774Z,2.80
2023-05-14T12:03:14.479Z,2.80
2023-05-14T12:07:30.428Z,4.22
2023-05-14T12:11:42.068Z,2.92
2023-05-14T12:15:58.459Z,3.28
2023-05-14T12:20:11.658Z,2.72
2023-05-14T12:24:25.637Z,3.22
2023-05-14T12:28:43.361Z,4.70
2023-05-14T12:32:55.478Z,2.97
2023-05-14T12:37:07.382Z,4.35
2023-05-14T12:41:19.075Z,4.05
2023-05-14T12:45:30.942Z,5.68
2023-05-14T12:49:42.549Z,4.00
2023-05-14T12:53:54.296Z,5.43
2023-05-14T12:58:05.904Z,4.32
2023-05-14T13:02:18.790Z,5.68
2023-05-14T13:06:31.710Z,6.32
2023-05-14T13:10:47.084Z,3.42
2023-05-14T13:14:58.751Z,6.40
2023-05-14T13:19:10.479Z,4.55
2023-05-14T13:23:22.312Z,3.17
2023-05-14T13:27:35.797Z,2.85
2023-05-14T13:31:47.432Z,3.13
2023-05-14T13:35:59.077Z,8.07
2023-05-14T13:40:11.187Z,3.95
2023-05-14T13:44:23.033Z,2.80
2023-05-14T13:48:35.934Z,2.95
2023-05-14T13:52:47.640Z,2.78
2023-05-14T13:56:59.258Z,3.38
2023-05-14T14:01:10.965Z,3.45
2023-05-14T14:05:23.987Z,5.13
2023-05-14T14:09:36.981Z,3.15
2023-05-14T14:13:48.732Z,3.42
2023-05-14T14:18:00.524Z,3.45
2023-05-14T14:22:14.053Z,2.75
2023-05-14T14:26:27.914Z,4.68
2023-05-14T14:30:39.780Z,3.25
2023-05-14T14:34:51.389Z,4.63
2023-05-14T14:39:03.058Z,4.05
2023-05-14T14:43:14.717Z,4.10
2023-05-14T14:47:26.341Z,3.85
2023-05-14T14:51:38.086Z,2.97
2023-05-14T14:55:50.476Z,2.45
2023-05-14T15:00:02.647Z,3.28
2023-05-14T15:04:14.536Z,2.80
2023-05-14T15:08:30.154Z,3.50
2023-05-14T15:12:41.841Z,2.70
2023-05-14T15:16:54.049Z,3.08
2023-05-14T15:21:05.910Z,3.20
2023-05-14T15:25:17.938Z,3.13
2023-05-14T15:29:29.625Z,4.25
2023-05-14T15:33:41.872Z,2.88
2023-05-14T15:37:59.285Z,3.80
2023-05-14T15:42:10.915Z,2.95
2023-05-14T15:46:23.632Z,7.47
2023-05-14T15:50:35.335Z,4.45
2023-05-14T15:54:47.204Z,4.55
2023-05-14T15:58:58.911Z,4.72
2023-05-14T16:03:11.131Z,3.92
2023-05-14T16:07:23.033Z,8.13
2023-05-14T16:11:34.698Z,3.55
2023-05-14T16:15:46.966Z,2.75
2023-05-14T16:20:00.874Z,3.65
2023-05-14T16:24:12.823Z,6.03
2023-05-14T16:28:24.527Z,3.13
2023-05-14T16:32:36.210Z,2.95
2023-05-14T16:36:47.948Z,2.97
2023-05-14T16:41:00.362Z,3.92
2023-05-14T16:45:12.102Z,3.35
2023-05-14T16:49:23.768Z,3.78
2023-05-14T16:53:36.062Z,3.00
2023-05-14T16:57:47.763Z,3.47
2023-05-14T17:01:59.559Z,4.97
2023-05-14T17:06:11.448Z,3.30
2023-05-14T17:10:25.258Z,2.92
2023-05-14T17:14:36.923Z,2.45
2023-05-14T17:18:49.181Z,9.57
2023-05-14T17:23:00.912Z,3.83
2023-05-14T17:27:13.807Z,3.65
2023-05-14T17:31:27.001Z,3.90
2023-05-14T17:35:38.901Z,3.13
2023-05-14T17:39:51.115Z,4.32
2023-05-14T17:44:02.818Z,3.10
2023-05-14T17:48:14.518Z,5.70
2023-05-14T17:52:26.324Z,4.57
2023-05-14T17:56:38.155Z,10.35
2023-05-14T18:00:49.859Z,4.07
2023-05-14T18:05:02.792Z,12.70
2023-05-14T18:09:15.285Z,8.10
2023-05-14T18:13:26.942Z,8.15
2023-05-14T18:17:38.631Z,8.60
2023-05-14T18:21:50.822Z,7.00
2023-05-14T18:26:02.699Z,10.05
2023-05-14T18:30:15.997Z,9.27
2023-05-14T18:34:27.709Z,6.35
2023-05-14T18:38:40.842Z,14.25
2023-05-14T18:42:52.537Z,7.85
2023-05-14T18:47:04.399Z,8.38
2023-05-14T18:51:16.133Z,7.45
2023-05-14T18:55:27.805Z,7.63
2023-05-14T18:59:39.495Z,8.70
2023-05-14T19:03:52.933Z,6.20
2023-05-14T19:08:04.829Z,7.40
2023-05-14T19:12:16.678Z,8.52
2023-05-14T19:16:28.465Z,5.25
2023-05-14T19:20:40.297Z,5.57
2023-05-14T19:24:51.957Z,7.03
2023-05-14T19:29:03.613Z,7.00
2023-05-14T19:33:15.435Z,7.43
2023-05-14T19:37:27.304Z,6.95
2023-05-14T19:41:39.061Z,5.68
2023-05-14T19:45:50.800Z,9.50
2023-05-14T19:50:02.516Z,7.40
2023-05-14T19:54:14.749Z,5.80
2023-05-14T19:58:26.684Z,6.93
2023-05-14T20:02:40.491Z,7.47
2023-05-14T20:06:52.761Z,6.47
2023-05-14T20:11:04.638Z,10.13
2023-05-14T20:15:16.333Z,7.57
2023-05-14T20:19:27.993Z,7.05
2023-05-14T20:23:39.741Z,13.10
2023-05-14T20:27:52.508Z,8.27
2023-05-14T20:32:04.405Z,6.43
2023-05-14T20:36:16.188Z,7.13
2023-05-14T20:40:27.908Z,9.70
2023-05-14T20:44:40.012Z,7.53
2023-05-14T20:48:54.533Z,8.57
2023-05-14T20:53:06.424Z,9.38
2023-05-14T20:57:18.917Z,9.45
2023-05-14T21:01:30.656Z,7.78
2023-05-14T21:05:43.724Z,5.85
2023-05-14T21:09:55.481Z,7.88
2023-05-14T21:14:07.123Z,9.40
2023-05-14T21:18:18.824Z,9.98
2023-05-14T21:22:30.582Z,11.15
2023-05-14T21:26:42.538Z,11.35
2023-05-14T21:30:54.173Z,9.13
2023-05-14T21:35:06.324Z,7.18
2023-05-14T21:39:18.037Z,6.88
2023-05-14T21:43:29.707Z,6.22
2023-05-14T21:47:41.466Z,6.53
2023-05-14T21:51:56.398Z,8.30
2023-05-14T21:56:08.315Z,6.95
2023-05-14T22:00:23.504Z,7.35
2023-05-14T22:04:35.448Z,9.82
2023-05-14T22:08:47.256Z,8.05
2023-05-14T22:12:59.032Z,8.90
2023-05-14T22:17:12.702Z,11.52
2023-05-14T22:21:24.348Z,7.40
2023-05-14T22:25:36.093Z,10.75
2023-05-14T22:29:47.713Z,7.72
2023-05-14T22:33:59.363Z,11.18
2023-05-14T22:38:11.023Z,10.88
2023-05-14T22:42:22.693Z,7.88
2023-05-14T22:46:34.391Z,16.60
2023-05-14T22:50:46.055Z,8.95
2023-05-14T22:54:57.640Z,8.50
2023-05-14T22:59:09.346Z,11.77
2023-05-14T23:03:21.109Z,10.50
2023-05-14T23:07:32.859Z,16.55
2023-05-14T23:11:44.474Z,10.30
2023-05-14T23:15:56.214Z,12.10
2023-05-14T23:20:10.787Z,13.63
2023-05-14T23:24:22.565Z,12.18
2023-05-14T23:28:34.211Z,13.13
2023-05-14T23:32:46.031Z,13.30
2023-05-14T23:36:57.770Z,11.00
2023-05-14T23:41:09.534Z,12.07
2023-05-14T23:45:21.181Z,10.82
2023-05-14T23:49:32.857Z,12.20
2023-05-14T23:53:44.573Z,14.60
2023-05-14T23:57:56.254Z,13.07
